Terminal Aerodrome Forecast
Issued by NWS

Home | Current Version | Previous Version | Text Only | Print | Product List | Glossary On
Versions: 1 2 3 4 5 6 7 8 9 10 11 12 13 14 15 16 17 18 19
000
FTUS41 KBTV 041131
TAFSLK
TAF
KSLK 041131Z 0412/0512 30005KT P6SM OVC015
     FM041800 29004KT P6SM OVC035
     FM042200 VRB02KT P6SM SCT040
     FM050000 00000KT P6SM SKC
     FM050900 VRB02KT P6SM VCSH BKN070 OVC150
     FM051100 15004KT 1 1/2SM -SN BR OVC020=

USA.gov is the U.S. government's official web portal to all federal, state and local government web resources and services.